Terminal Aerodrome Forecast
Issued by NWS Twin Cities, MN

Home | Current Version | Previous Version | Graphics & Text | Print | Product List | Glossary On
Versions: 1 2 3 4 5 6 7 8 9 10 11 12 13 14 15 16 17 18 19 20 21 22 23 24 25
000
FTUS43 KMPX 190900 AAA
TAFEAU
TAF AMD
KEAU 190954Z 1910/2006 25003KT 5SM BR OVC004
      TEMPO 1910/1914 1SM BR
     FM191500 31006KT P6SM SCT010 BKN100
     FM191800 31007KT P6SM VCSH SCT060 BKN100=

USA.gov is the U.S. government's official web portal to all federal, state and local government web resources and services.